Time;durP1;ratioP1;P1;durP2;ratioP2;P2;SDS_P1;SDS_P2;PMS_P1;PMS_P2;Temp;Humidity;BMP_temperature;BMP_pressure;BME280_temperature;BME280_humidity;BME280_pressure;Samples;Min_cycle;Max_cycle;Signal;HPM_P1;HPM_P2
2024/01/17 00:00:28;;;;;;;;;;;21.40;29.20;;;;;;3040477;19;4670;-68
2024/01/17 00:01:28;;;;;;;;;;;21.40;29.30;;;;;;3061581;19;5777;-68
2024/01/17 00:02:29;;;;;;;;;;;21.40;29.30;;;;;;3040640;19;5979;-67
2024/01/17 00:03:30;;;;;;;;;;;21.40;29.30;;;;;;3062398;19;5604;-68
2024/01/17 00:04:30;;;;;;;;;;;21.30;29.20;;;;;;3062224;19;5378;-69
2024/01/17 00:05:31;;;;;;;;;;;21.30;29.30;;;;;;3040831;19;5182;-69
2024/01/17 00:06:32;;;;;;;;;;;21.30;29.30;;;;;;3061744;19;6286;-68
2024/01/17 00:07:32;;;;;;;;;;;21.20;29.30;;;;;;3062271;19;4796;-68
2024/01/17 00:08:33;;;;;;;;;;;21.20;29.30;;;;;;3039538;19;5082;-68
2024/01/17 00:09:33;;;;;;;;;;;21.10;29.30;;;;;;3060409;19;4948;-68
2024/01/17 00:10:34;;;;;;;;;;;21.10;29.20;;;;;;3040405;19;5283;-68
2024/01/17 00:11:36;;;;;;;;;;;21.00;29.30;;;;;;3061062;19;4746;-68
2024/01/17 00:12:37;;;;;;;;;;;21.00;29.20;;;;;;3062097;19;5281;-68
2024/01/17 00:13:37;;;;;;;;;;;21.10;29.30;;;;;;3040060;19;5660;-67
2024/01/17 00:14:38;;;;;;;;;;;21.10;29.40;;;;;;3061461;19;5439;-67
2024/01/17 00:15:38;;;;;;;;;;;21.10;29.30;;;;;;3058582;19;5334;-77
2024/01/17 00:16:40;;;;;;;;;;;21.10;29.30;;;;;;3052042;19;5453;-79
2024/01/17 00:17:40;;;;;;;;;;;21.20;29.50;;;;;;3062618;19;5358;-80
2024/01/17 00:18:41;;;;;;;;;;;21.30;29.30;;;;;;3040272;19;5273;-79
2024/01/17 00:19:42;;;;;;;;;;;21.30;29.20;;;;;;3062356;19;4655;-78
2024/01/17 00:20:42;;;;;;;;;;;21.30;29.10;;;;;;3063266;19;6359;-78
2024/01/17 00:21:43;;;;;;;;;;;21.30;29.10;;;;;;3041048;19;5273;-79
2024/01/17 00:22:44;;;;;;;;;;;21.30;29.20;;;;;;3060474;19;5290;-79
2024/01/17 00:23:45;;;;;;;;;;;21.30;29.20;;;;;;3040941;19;5189;-78
2024/01/17 00:24:48;;;;;;;;;;;21.30;29.10;;;;;;3062924;19;5516;-79
2024/01/17 00:25:48;;;;;;;;;;;21.30;29.30;;;;;;3062092;19;5716;-76
2024/01/17 00:26:49;;;;;;;;;;;21.30;29.30;;;;;;3040225;19;5317;-78
2024/01/17 00:27:50;;;;;;;;;;;21.20;29.10;;;;;;3061920;19;5334;-77
2024/01/17 00:28:50;;;;;;;;;;;21.20;29.30;;;;;;3062186;19;4932;-76
2024/01/17 00:29:57;;;;;;;;;;;21.10;29.20;;;;;;3040537;19;5637;-79
2024/01/17 00:30:58;;;;;;;;;;;21.10;29.20;;;;;;3062178;19;5031;-76
2024/01/17 00:32:00;;;;;;;;;;;21.10;29.10;;;;;;3041069;19;4708;-76
2024/01/17 00:33:01;;;;;;;;;;;21.10;29.20;;;;;;3061644;19;5349;-77
2024/01/17 00:34:02;;;;;;;;;;;21.10;29.20;;;;;;3061551;19;5309;-77
2024/01/17 00:35:02;;;;;;;;;;;21.10;29.30;;;;;;3040279;19;7418;-77
2024/01/17 00:36:03;;;;;;;;;;;21.20;29.20;;;;;;3062196;19;5281;-72
2024/01/17 00:37:04;;;;;;;;;;;21.20;29.10;;;;;;3040378;19;5320;-71
2024/01/17 00:38:05;;;;;;;;;;;21.30;29.20;;;;;;3061846;19;5270;-73
2024/01/17 00:39:07;;;;;;;;;;;21.30;29.10;;;;;;3058062;19;4641;-73
2024/01/17 00:40:08;;;;;;;;;;;21.30;29.00;;;;;;3039907;19;5258;-73
2024/01/17 00:41:09;;;;;;;;;;;21.30;29.20;;;;;;3060781;19;5810;-73
2024/01/17 00:42:10;;;;;;;;;;;21.30;29.10;;;;;;3061923;19;5315;-73
2024/01/17 00:43:10;;;;;;;;;;;21.30;29.10;;;;;;3040160;19;5245;-73
2024/01/17 00:44:16;;;;;;;;;;;21.30;29.20;;;;;;3061437;19;5388;-72
2024/01/17 00:45:17;;;;;;;;;;;21.30;29.00;;;;;;3052275;19;4830;-73
2024/01/17 00:46:17;;;;;;;;;;;21.20;29.10;;;;;;3074510;19;5312;-72
2024/01/17 00:47:18;;;;;;;;;;;21.20;29.10;;;;;;3073898;19;5415;-71
2024/01/17 00:48:19;;;;;;;;;;;21.20;29.20;;;;;;3053021;19;5157;-72
2024/01/17 00:49:19;;;;;;;;;;;21.10;28.90;;;;;;3073992;19;5425;-70
2024/01/17 00:50:20;;;;;;;;;;;21.10;29.20;;;;;;3052134;19;4768;-72
2024/01/17 00:51:22;;;;;;;;;;;21.10;29.10;;;;;;3074181;19;5352;-72
2024/01/17 00:52:23;;;;;;;;;;;21.10;29.20;;;;;;3074108;19;5171;-72
2024/01/17 00:53:23;;;;;;;;;;;21.10;29.10;;;;;;3052170;19;5477;-72
2024/01/17 00:54:24;;;;;;;;;;;21.20;29.10;;;;;;3073092;19;5655;-73
2024/01/17 00:55:25;;;;;;;;;;;21.20;29.00;;;;;;3074220;19;4640;-73
2024/01/17 00:56:27;;;;;;;;;;;21.30;29.00;;;;;;3051747;19;4905;-73
2024/01/17 00:57:27;;;;;;;;;;;21.30;29.10;;;;;;3073844;19;4608;-73
2024/01/17 00:58:28;;;;;;;;;;;21.30;29.10;;;;;;3051801;19;5351;-73
2024/01/17 00:59:29;;;;;;;;;;;21.40;29.00;;;;;;3073593;19;5363;-73
2024/01/17 01:00:29;;;;;;;;;;;21.30;29.10;;;;;;3074266;19;5456;-74
2024/01/17 01:01:30;;;;;;;;;;;21.40;29.00;;;;;;3052169;19;5162;-74
2024/01/17 01:02:31;;;;;;;;;;;21.30;29.00;;;;;;3074830;19;4685;-75
2024/01/17 01:03:31;;;;;;;;;;;21.30;29.00;;;;;;3074397;19;4824;-72
2024/01/17 01:04:32;;;;;;;;;;;21.30;29.00;;;;;;3050132;19;4752;-74
2024/01/17 01:05:34;;;;;;;;;;;21.30;29.00;;;;;;3070551;19;5348;-73
2024/01/17 01:06:35;;;;;;;;;;;21.30;29.10;;;;;;3042985;19;5368;-72
2024/01/17 01:07:35;;;;;;;;;;;21.20;29.10;;;;;;3064418;19;5123;-73
2024/01/17 01:08:36;;;;;;;;;;;21.20;29.10;;;;;;3063917;19;5717;-73
2024/01/17 01:09:36;;;;;;;;;;;21.10;29.20;;;;;;3041147;19;5067;-73
2024/01/17 01:10:37;;;;;;;;;;;21.10;29.10;;;;;;3063169;19;5559;-72
2024/01/17 01:11:38;;;;;;;;;;;21.10;29.10;;;;;;3056398;19;5373;-73
2024/01/17 01:12:40;;;;;;;;;;;21.00;29.10;;;;;;3055186;19;5374;-74
2024/01/17 01:13:40;;;;;;;;;;;21.00;29.00;;;;;;3062830;19;5398;-72
2024/01/17 01:14:41;;;;;;;;;;;20.90;29.40;;;;;;3040109;19;4799;-73
2024/01/17 01:15:41;;;;;;;;;;;20.90;29.30;;;;;;3062494;19;5376;-72
2024/01/17 01:16:43;;;;;;;;;;;21.00;29.20;;;;;;3063042;19;6358;-72
2024/01/17 01:17:44;;;;;;;;;;;21.00;29.20;;;;;;3040991;19;4820;-73
2024/01/17 01:18:45;;;;;;;;;;;21.00;29.10;;;;;;3062496;19;5355;-72
2024/01/17 01:19:45;;;;;;;;;;;21.10;29.10;;;;;;3041079;19;5442;-73
2024/01/17 01:20:46;;;;;;;;;;;21.10;29.10;;;;;;3059295;19;5819;-73
2024/01/17 01:21:46;;;;;;;;;;;21.10;29.30;;;;;;3062165;19;4860;-73
2024/01/17 01:22:47;;;;;;;;;;;21.10;29.10;;;;;;3040956;19;4930;-72
2024/01/17 01:23:48;;;;;;;;;;;21.20;29.00;;;;;;3062352;19;5202;-71
2024/01/17 01:24:48;;;;;;;;;;;21.20;29.10;;;;;;3062290;19;5413;-72
2024/01/17 01:25:49;;;;;;;;;;;21.20;29.10;;;;;;3039629;19;4573;-72
2024/01/17 01:26:50;;;;;;;;;;;21.10;29.00;;;;;;3061789;19;5305;-72
2024/01/17 01:27:52;;;;;;;;;;;21.10;29.10;;;;;;3040889;19;5386;-72
2024/01/17 01:28:52;;;;;;;;;;;21.10;29.00;;;;;;3061842;19;5335;-72
2024/01/17 01:29:54;;;;;;;;;;;21.00;29.00;;;;;;3061389;19;5285;-72
2024/01/17 01:30:55;;;;;;;;;;;21.00;28.90;;;;;;3040106;19;5317;-71
2024/01/17 01:31:55;;;;;;;;;;;21.00;28.90;;;;;;3061537;19;5365;-72
2024/01/17 01:32:56;;;;;;;;;;;21.00;29.00;;;;;;3062229;19;5302;-72
2024/01/17 01:33:56;;;;;;;;;;;21.00;29.00;;;;;;3039985;19;5183;-72
2024/01/17 01:34:58;;;;;;;;;;;21.10;29.00;;;;;;3061804;19;5305;-71
2024/01/17 01:35:59;;;;;;;;;;;21.10;29.00;;;;;;3040539;19;4754;-79
2024/01/17 01:37:00;;;;;;;;;;;21.10;28.90;;;;;;3062221;19;5161;-79
2024/01/17 01:38:01;;;;;;;;;;;21.20;29.00;;;;;;3062006;19;5392;-80
2024/01/17 01:39:01;;;;;;;;;;;21.20;28.90;;;;;;3039468;19;4733;-79
2024/01/17 01:40:02;;;;;;;;;;;21.20;29.00;;;;;;3061762;19;5063;-80
2024/01/17 01:41:03;;;;;;;;;;;21.20;29.10;;;;;;3040243;19;5252;-80
2024/01/17 01:42:04;;;;;;;;;;;21.20;28.90;;;;;;3062139;19;6360;-79
2024/01/17 01:43:20;;;;;;;;;;;21.20;28.90;;;;;;3061721;19;5357;-78
2024/01/17 01:44:22;;;;;;;;;;;21.10;29.00;;;;;;2937530;19;2010731;-79
2024/01/17 01:45:22;;;;;;;;;;;21.10;29.10;;;;;;3061515;19;5387;-69
2024/01/17 01:46:27;;;;;;;;;;;21.10;28.90;;;;;;3039577;19;6506;-75
2024/01/17 01:47:27;;;;;;;;;;;21.00;29.10;;;;;;3061617;19;4690;-75
2024/01/17 01:48:28;;;;;;;;;;;21.00;29.10;;;;;;3061717;19;5261;-75
2024/01/17 01:49:29;;;;;;;;;;;21.00;29.10;;;;;;3039287;19;4481;-74
2024/01/17 01:50:29;;;;;;;;;;;21.00;29.10;;;;;;3060265;19;5379;-75
2024/01/17 01:51:30;;;;;;;;;;;21.00;29.20;;;;;;3060853;19;5529;-74
2024/01/17 01:52:33;;;;;;;;;;;21.10;29.00;;;;;;3039434;19;5154;-75
2024/01/17 01:53:33;;;;;;;;;;;21.10;29.60;;;;;;3061202;19;4946;-74
2024/01/17 01:54:34;;;;;;;;;;;21.10;28.80;;;;;;3018052;19;5422;-75
2024/01/17 01:55:35;;;;;;;;;;;21.10;28.90;;;;;;3061583;19;5332;-73
2024/01/17 01:56:36;;;;;;;;;;;21.10;28.90;;;;;;3061021;19;5780;-75
2024/01/17 01:57:37;;;;;;;;;;;21.10;29.00;;;;;;3039863;19;4681;-74
2024/01/17 01:58:38;;;;;;;;;;;21.10;28.90;;;;;;3061582;19;5360;-74
2024/01/17 01:59:39;;;;;;;;;;;21.10;28.90;;;;;;3043350;19;5257;-74
2024/01/17 02:00:39;;;;;;;;;;;21.00;28.80;;;;;;3061954;19;5353;-74
2024/01/17 02:01:40;;;;;;;;;;;21.00;29.00;;;;;;3061454;19;5798;-75
2024/01/17 02:02:41;;;;;;;;;;;20.90;28.80;;;;;;3039496;19;5338;-74
2024/01/17 02:03:43;;;;;;;;;;;20.90;28.90;;;;;;3060531;19;5458;-76
2024/01/17 02:04:43;;;;;;;;;;;20.90;29.30;;;;;;3061169;19;5284;-76
2024/01/17 02:05:44;;;;;;;;;;;21.00;29.20;;;;;;3039557;19;6453;-74
2024/01/17 02:06:45;;;;;;;;;;;21.00;29.00;;;;;;3061017;19;5691;-75
2024/01/17 02:07:46;;;;;;;;;;;21.00;29.00;;;;;;3039162;19;4670;-73
2024/01/17 02:08:46;;;;;;;;;;;21.10;29.00;;;;;;3061171;19;5103;-75
2024/01/17 02:09:47;;;;;;;;;;;21.10;28.90;;;;;;3060422;19;4639;-74
2024/01/17 02:10:48;;;;;;;;;;;21.10;28.80;;;;;;3038343;19;5879;-74
